CheckWX is a tool to help pilots better visualize weather data.  It is not intended as a substitute for an official pre-flight weather briefing.

01:33:45 UTC

KAJG METAR
Mount Carmel Municipal Airport
Mount Carmel, Illinois, USA
Current

39 mins ago

KAJG 200055Z AUTO 20007KT 10SM CLR 29/24 A2991 RMK AO2 T02920239
Observed
Jul-20 @ 00:55 UTC
Wind
  • 200° at 7 KTS
Visibility
10 SM
Flight Rules
VFR
Cloud Levels
  • Clear skies
Temperature
29°C / 84°F
Dewpoint
24°C / 75°F
Heat Index
33°C / 92°F
Humidity
74%
Altimeter
29.91" Hg
Pressure
1012.92 hPa
Previous

59 mins ago

KAJG 200035Z AUTO 21007KT 10SM CLR 30/24 A2992 RMK AO2 T03000239
Observed
Jul-20 @ 00:35 UTC
Wind
  • 210° at 7 KTS
Visibility
10 SM
Flight Rules
VFR
Cloud Levels
  • Clear skies
Temperature
30°C / 86°F
Dewpoint
24°C / 75°F
Heat Index
35°C / 95°F
Humidity
70%
Altimeter
29.92" Hg
Pressure
1013.22 hPa
Previous

1 hour ago

KAJG 200015Z AUTO 21007KT 10SM CLR 31/24 A2992 RMK AO2 T03050239
Observed
Jul-20 @ 00:15 UTC
Wind
  • 210° at 7 KTS
Visibility
10 SM
Flight Rules
VFR
Cloud Levels
  • Clear skies
Temperature
31°C / 88°F
Dewpoint
24°C / 75°F
Heat Index
37°C / 98°F
Humidity
66%
Altimeter
29.92" Hg
Pressure
1013.22 hPa